Have a Safe July 4th! 

Flight Track Log - Related Links

Times and Time Zones

All times are in EDT time to prevent confusion due to time zone crossing. See the SWA3497 flight status page for this flight to view local times or setup timezone preferences in your user account.

Time Position Orientation Groundspeed Altitude Reporting Facility
EDT Latitude Longitude Course Direction KTS MPH feet Rate Location/Type
Mon 02:06:12 PM 38.1453 -85.7172 152° Southeast 155 178 1,900  Level FAA TRACON SMA TRACON (SMA)
Mon 02:06:32 PM 38.1300 -85.7117 164° South 177 204 2,400 2,550 Climbing FAA TRACON SMA TRACON (SMA)
Mon 02:06:52 PM 38.1081 -85.7042 165° South 209 241 3,600 3,600 Climbing FAA TRACON SMA TRACON (SMA)
Mon 02:07:12 PM 38.0894 -85.6975 164° South 224 258 4,800 3,512 Climbing FAA TRACON SMA TRACON (SMA)
Mon 02:07:33 PM 38.0725 -85.6847 149° Southeast 234 269 6,000 3,600 Climbing FAA TRACON SMA TRACON (SMA)
Mon 02:07:52 PM 38.0619 -85.6536 113° Southeast 255 293 7,200 3,846 Climbing FAA TRACON SMA TRACON (SMA)
Mon 02:08:12 PM 38.0611 -85.6244 92° East 267 307 8,500 3,450 Climbing FAA TRACON SMA TRACON (SMA)
Mon 02:08:32 PM 38.0617 -85.5944 89° East 275 316 9,500 3,450 Climbing FAA TRACON SMA TRACON (SMA)
Mon 02:08:52 PM 38.0606 -85.5553 92° East 288 331 10,800 2,634 Climbing FAA TRACON SMA TRACON (SMA)
Mon 02:09:13 PM 38.0594 -85.5211 92° East 307 353 11,300 2,700 Climbing FAA TRACON SMA TRACON (SMA)
Mon 02:09:32 PM 38.0578 -85.4761 93° East 331 381 12,600 3,300 Climbing FAA TRACON SMA TRACON (SMA)
Mon 02:09:53 PM 38.0564 -85.4381 93° East 347 399 13,500 2,634 Climbing FAA TRACON SMA TRACON (SMA)
Mon 02:10:13 PM 38.0550 -85.3989 93° East 359 413 14,400 3,846 Climbing FAA TRACON SMA TRACON (SMA)
Mon 02:10:32 PM 38.0533 -85.3489 92° East 370 426 16,000 4,200 Climbing FAA TRACON SMA TRACON (SMA)
Mon 02:10:53 PM 38.0519 -85.3086 92° East 370 426 17,200 3,150 Climbing FAA TRACON SMA TRACON (SMA)
Mon 02:11:12 PM 38.0508 -85.2686 92° East 371 427 18,100 3,385 Climbing FAA TRACON SMA TRACON (SMA)
Mon 02:11:32 PM 38.0542 -85.2181 85° East 374 430 19,400 3,300 Climbing FAA TRACON SMA TRACON (SMA)
Mon 02:11:52 PM 38.0589 -85.1769 82° East 379 436 20,300 2,550 Climbing FAA TRACON SMA TRACON (SMA)
Mon 02:12:12 PM 38.0631 -85.1350 83° East 386 444 21,100 2,780 Climbing FAA TRACON SMA TRACON (SMA)
Mon 02:12:33 PM 38.0686 -85.0819 82° East 393 452 22,200 2,634 Climbing FAA TRACON SMA TRACON (SMA)
Mon 02:12:53 PM 38.0728 -85.0389 83° East 400 460 22,900 1,231 Climbing FAA TRACON SMA TRACON (SMA)
Mon 02:13:12 PM 38.0769 -84.9953 83° East 403 464 23,000 150 Climbing FAA TRACON SMA TRACON (SMA)
Mon 02:13:33 PM 38.0825 -84.9408 83° East 405 466 23,000 150 Level FAA TRACON SMA TRACON (SMA)
Mon 02:13:52 PM 38.0881 -84.8975 81° East 404 465 23,100 1,286 Climbing FAA TRACON SMA TRACON (SMA)
Mon 02:14:15 PM 38.0936 -84.8425 83° East 408 470 23,900 2,233 Climbing FAA TRACON SMA TRACON (SMA)
Mon 02:14:35 PM 38.0981 -84.7983 83° East 410 472 24,700 2,595 Climbing FAA TRACON SMA TRACON (SMA)
Mon 02:14:52 PM 38.1011 -84.7539 85° East 411 473 25,500 2,368 Climbing FAA TRACON SMA TRACON (SMA)
Mon 02:15:13 PM 38.1058 -84.7089 82° East 416 479 26,200 2,400 Climbing FAA TRACON SMA TRACON (SMA)
Mon 02:15:32 PM 38.1119 -84.6517 82° East 423 487 27,100 2,308 Climbing FAA TRACON SMA TRACON (SMA)
Mon 02:15:52 PM 38.1169 -84.6058 82° East 427 491 27,700 1,756 Climbing FAA TRACON SMA TRACON (SMA)
Mon 02:16:13 PM 38.1225 -84.5589 81° East 433 498 28,300 1,950 Climbing FAA TRACON SMA TRACON (SMA)
Mon 02:16:32 PM 38.1283 -84.4994 83° East 440 506 29,000 1,692 Climbing FAA TRACON SMA TRACON (SMA)
Mon 02:16:52 PM 38.1328 -84.4633 81° East 446 513 29,400 1,750 Climbing FAA TRACON SMA TRACON (SMA)
Mon 02:17:44 PM 38.1422 -84.3247 85° East 452 520 31,100 2,053 Climbing Indianapolis Center
Mon 02:18:46 PM 38.1578 -84.1633 83° East 458 527 33,300 1,403 Climbing Indianapolis Center
Mon 02:19:48 PM 38.1722 -84.0031 83° East 457 526 34,000 341 Climbing Indianapolis Center
Mon 02:20:49 PM 38.1861 -83.8417 84° East 456 525 34,000 532 Level Indianapolis Center
Mon 02:21:52 PM 38.2000 -83.6803 84° East 458 527 35,100 1,210 Climbing Indianapolis Center
Mon 02:22:53 PM 38.2161 -83.4914 84° East 459 528 36,500 927 Climbing Indianapolis Center
Mon 02:23:55 PM 38.2306 -83.3242 84° East 472 543 37,000 242 Climbing Indianapolis Center
Mon 02:24:57 PM 38.2442 -83.1569 84° East 475 547 37,000  Level Indianapolis Center
Mon 02:25:59 PM 38.2372 -82.9897 93° East 472 543 37,000  Level Indianapolis Center
Mon 02:27:01 PM 38.2308 -82.8233 93° East 471 542 37,000  Level Indianapolis Center
Mon 02:28:03 PM 38.2269 -82.6569 92° East 470 541 37,000  Level Indianapolis Center
Mon 02:29:04 PM 38.2297 -82.4714 89° East 474 545 37,000  Level Indianapolis Center
Mon 02:30:06 PM 38.2339 -82.3033 88° East 476 548 37,000  Level Indianapolis Center
Mon 02:31:08 PM 38.2361 -82.1336 89° East 480 552 37,000  Level Indianapolis Center
Mon 02:32:10 PM 38.2400 -81.9650 88° East 482 555 37,000  Level Indianapolis Center
Mon 02:33:12 PM 38.2433 -81.7931 89° East 489 563 37,000  Level Indianapolis Center
Mon 02:34:14 PM 38.2453 -81.5889 89° East 486 559 37,000  Level Indianapolis Center
Mon 02:35:15 PM 38.2478 -81.4183 89° East 487 560 37,000  Level Indianapolis Center
Mon 02:36:17 PM 38.2489 -81.2478 89° East 487 560 37,000  Level Indianapolis Center
Mon 02:37:07 PM 38.2511 -81.0997 89° East 490 564 37,000  Level Washington Center
Mon 02:38:07 PM 38.2714 -80.9264 81° East 495 570 37,000 -200 Level Washington Center
Mon 02:39:07 PM 38.2956 -80.7561 80° East 495 570 36,600 -500 Descending Washington Center
Mon 02:40:07 PM 38.3194 -80.5858 80° East 495 570 36,000 -300 Descending Washington Center
Mon 02:41:07 PM 38.3383 -80.4336 81° East 495 570 36,000  Level Washington Center
Mon 02:42:07 PM 38.3619 -80.2603 80° East 495 570 36,000  Level Washington Center
Mon 02:43:07 PM 38.3850 -80.0947 80° East 490 564 36,000  Level Washington Center
Mon 02:44:07 PM 38.4058 -79.9239 81° East 484 557 36,000  Level Washington Center
Mon 02:45:07 PM 38.4292 -79.7344 81° East 484 557 36,000 -950 Level Washington Center
Mon 02:46:07 PM 38.4494 -79.5658 81° East 484 557 34,100 -2,150 Descending Washington Center
Mon 02:47:07 PM 38.4694 -79.3972 81° East 484 557 31,700 -2,250 Descending Washington Center
Mon 02:48:07 PM 38.4911 -79.2364 80° East 479 551 29,600 -2,050 Descending Washington Center
Mon 02:49:07 PM 38.5106 -79.0756 81° East 469 540 27,600 -1,300 Descending Washington Center
Mon 02:50:07 PM 38.5250 -78.9381 82° East 448 516 27,000 -300 Descending Washington Center
Mon 02:51:07 PM 38.5419 -78.7717 83° East 440 506 27,000  Level Washington Center
Mon 02:52:07 PM 38.5583 -78.6211 82° East 434 499 27,000  Level Washington Center
Mon 02:53:07 PM 38.5767 -78.4703 81° East 428 493 27,000 -950 Level Washington Center
Mon 02:54:07 PM 38.5925 -78.3222 82° East 428 493 25,100 -1,950 Descending Washington Center
Mon 02:55:07 PM 38.6083 -78.1794 82° East 422 486 23,100 -1,900 Descending Washington Center
Mon 02:56:07 PM 38.6214 -78.0497 83° East 415 478 21,300 -1,800 Descending Washington Center
Mon 02:57:07 PM 38.6344 -77.9144 83° East 403 464 19,500 -1,150 Descending Washington Center
Mon 02:58:07 PM 38.6456 -77.7792 84° East 386 444 19,000 -250 Descending Washington Center
Mon 02:59:07 PM 38.6539 -77.6519 85° East 375 432 19,000 -387 Level Washington Center
Mon 02:59:40 PM 38.6667 -77.5667 79° East 369 425 18,400 -1,340 Descending Potomac TRACON
Mon 03:00:41 PM 38.6667 -77.4333 90° East 363 418 16,900 -1,240 Descending Potomac TRACON
Mon 03:01:41 PM 38.6667 -77.3000 90° East 343 395 15,900 -1,238 Descending Potomac TRACON
Mon 03:02:47 PM 38.6833 -77.1833 80° East 322 371 14,300 -1,550 Descending Potomac TRACON
Mon 03:03:41 PM 38.6833 -77.0833 90° East 317 365 12,800 -1,526 Descending Potomac TRACON
Mon 03:04:41 PM 38.7000 -76.9667 80° East 308 354 11,400 -1,300 Descending Potomac TRACON
Mon 03:05:41 PM 38.7000 -76.8667 90° East 298 343 10,200 -907 Descending Potomac TRACON
Mon 03:06:07 PM 38.6986 -76.8339 93° East 302 348 10,100 -950 Descending Washington Center
Mon 03:07:41 PM 38.7333 -76.6833 73° East 272 313 8,300 -1,208 Descending Potomac TRACON
Mon 03:08:41 PM 38.7667 -76.6000 63° Northeast 265 305 7,000 -1,150 Descending Potomac TRACON
Mon 03:09:41 PM 38.8167 -76.5333 46° Northeast 272 313 6,000 -783 Descending Potomac TRACON
Mon 03:10:36 PM 38.8833 -76.5500 349° North 265 305 5,500 -887 Descending Potomac TRACON
Mon 03:11:36 PM 38.9500 -76.5833 339° North 257 296 4,300 -750 Descending Potomac TRACON
Mon 03:12:36 PM 39.0000 -76.6500 314° West 257 296 4,000 -150 Descending Potomac TRACON
Mon 03:13:36 PM 39.0333 -76.7333 297° West 254 292 4,000 -250 Level Potomac TRACON
Mon 03:14:36 PM 39.0833 -76.8000 314° West 255 293 3,500 -250 Descending Potomac TRACON
Mon 03:15:36 PM 39.1333 -76.8167 346° North 211 243 3,500 -600 Level Potomac TRACON
Mon 03:16:36 PM 39.1667 -76.7833 38° Northeast 167 192 2,300 -1,200 Descending Potomac TRACON
Mon 03:17:36 PM 39.1833 -76.7500 57° Northeast 129 148 1,100 -1,200 Descending Potomac TRACON
Mon 03:19:00 PM 39.1754 -76.6683 North  Level Estimated
Mon 03:26:00 PM 39.1754 -76.6683 351° North  Level Estimated
Mon 03:27:00 PM 39.1754 -76.6683 351° North  Level Estimated
Mon 03:28:00 PM 39.1754 -76.6683 351° North  Level Estimated

Login

Don't have an account? Register now (free) for customized features, flight alerts, and more!